EmailTwitter


Surface observations / Quebec / CYUL (71627)

Regions: Quebec | Canada | USA | Europe | France | UK | Elsewhere
Station
Display
Info & Location for CYUL (71627) | Help decoding METAR

Weather Conditions observed on 2018/08/18 at 08:00 UTC at MONTREAL INTL A, QB (CYUL)

Sky conditions: overcast.

Temperature: 18.0 Celsius.

Dewpoint: 14.0 Celsius.

Relative Humidity: 77%

Winds: North at 17 km/h or 9 knots.

Gust: 30 km/h or 16 knots.

Mean Sea level Pressure: 101.12 kilopascals.

Altimeter Setting (QNH): 101.12 kilopascals or 29.86 inches of mercury.

Horizontal visibility: 15.00 statute miles or 24.00 kilometers.

Height of the Ceiling: 457 metres ( 1500 feet ).

Coded METAR:

CYUL 180800Z 36009G16KT 15SM OVC015 18/14 A2986 RMK SC8 SLP112 DENSITY ALT

600FT=